Alvord, Texas
Current Conditions -  °F | °C
As of 3:35 AM on Thursday 18 Dec 2014 (Local Time) from KLUD Reporting Station
Haze Haze  
Wind Chill: 36°   Ceiling: 200
Heat Index: 41°   Visibility: 1.7mi
Dew Point: 41°   Wind: 8mph
Humidity: 100%   Direction: 130°SE
Pressure: 30.09"   Gusts: NA
Location:  33.36°N, 97.69°W
Report Text: KLUD 180935Z AUTO 13007KT 1 3/4SM BR OVC002 05/05 A3009 RMK AO2 T00490049
Loading
Personal Weather Stations






























Interactive Weather Map New forecast layout! Learn more

10-Day Weather Forecast

Advertisements
Track Severe Weather on mobile